createdAt,value
2023-07-08T00:01:22.824Z,55.18
2023-07-08T00:03:55.239Z,55.38
2023-07-08T00:06:30.352Z,55.42
2023-07-08T00:09:04.167Z,55.40
2023-07-08T00:11:36.510Z,55.60
2023-07-08T00:14:10.031Z,55.73
2023-07-08T00:16:42.651Z,55.71
2023-07-08T00:19:20.469Z,55.77
2023-07-08T00:21:54.135Z,55.85
2023-07-08T00:24:26.469Z,55.65
2023-07-08T00:26:59.737Z,56.01
2023-07-08T00:29:33.350Z,55.94
2023-07-08T00:32:10.395Z,56.08
2023-07-08T00:34:43.353Z,56.11
2023-07-08T00:37:17.512Z,56.24
2023-07-08T00:39:50.106Z,56.42
2023-07-08T00:42:26.725Z,56.45
2023-07-08T00:44:59.917Z,56.67
2023-07-08T00:47:32.949Z,56.68
2023-07-08T00:50:12.533Z,56.46
2023-07-08T00:52:47.613Z,56.46
2023-07-08T00:55:21.497Z,56.49
2023-07-08T00:57:53.734Z,56.33
2023-07-08T01:00:28.297Z,56.46
2023-07-08T01:03:00.799Z,56.38
2023-07-08T01:05:35.812Z,56.44
2023-07-08T01:08:12.686Z,56.06
2023-07-08T01:10:51.987Z,56.05
2023-07-08T01:13:25.565Z,55.88
2023-07-08T01:15:58.262Z,55.90
2023-07-08T01:18:31.831Z,55.93
2023-07-08T01:21:29.585Z,56.01
2023-07-08T01:24:04.422Z,56.05
2023-07-08T01:26:40.153Z,56.43
2023-07-08T01:29:14.152Z,56.59
2023-07-08T01:31:50.209Z,56.58
2023-07-08T01:34:23.973Z,56.84
2023-07-08T01:36:59.482Z,56.92
2023-07-08T01:39:34.130Z,56.73
2023-07-08T01:42:07.152Z,56.63
2023-07-08T01:44:40.413Z,56.51
2023-07-08T01:47:18.119Z,56.57
2023-07-08T01:49:51.212Z,56.54
2023-07-08T01:52:25.137Z,56.44
2023-07-08T01:55:00.283Z,56.87
2023-07-08T01:57:31.565Z,56.80
2023-07-08T02:00:04.663Z,56.79
2023-07-08T02:02:46.065Z,56.91
2023-07-08T02:05:19.088Z,56.86
2023-07-08T02:07:51.880Z,56.99
2023-07-08T02:10:26.577Z,56.86
2023-07-08T02:12:59.662Z,57.20
2023-07-08T02:15:32.672Z,57.41
2023-07-08T02:18:06.325Z,57.47
2023-07-08T02:20:39.285Z,57.53
2023-07-08T02:23:11.555Z,57.57
2023-07-08T02:25:44.380Z,57.51
2023-07-08T02:28:17.883Z,57.43
2023-07-08T02:30:50.777Z,57.43
2023-07-08T02:33:29.009Z,57.73
2023-07-08T02:36:02.343Z,57.80
2023-07-08T02:38:35.657Z,57.78
2023-07-08T02:41:10.224Z,57.30
2023-07-08T02:43:43.300Z,57.06
2023-07-08T02:46:15.995Z,57.13
2023-07-08T02:48:48.849Z,57.35
2023-07-08T02:51:21.910Z,57.19
2023-07-08T02:53:54.998Z,56.82
2023-07-08T02:56:28.341Z,56.95
2023-07-08T02:59:01.147Z,56.72
2023-07-08T03:01:35.413Z,56.82
2023-07-08T03:04:09.782Z,56.88
2023-07-08T03:06:42.975Z,57.14
2023-07-08T03:09:16.453Z,57.21
2023-07-08T03:11:49.129Z,57.72
2023-07-08T03:14:22.364Z,58.00
2023-07-08T03:16:55.708Z,58.00
2023-07-08T03:19:28.611Z,57.81
2023-07-08T03:22:04.277Z,57.76
2023-07-08T03:24:36.876Z,58.04
2023-07-08T03:27:11.271Z,58.59
2023-07-08T03:29:44.728Z,58.81
2023-07-08T03:32:17.995Z,59.16
2023-07-08T03:34:50.461Z,59.45
2023-07-08T03:37:22.974Z,59.97
2023-07-08T03:39:56.036Z,60.38
2023-07-08T03:42:30.301Z,61.15
2023-07-08T03:45:04.160Z,61.24
2023-07-08T03:47:36.842Z,61.84
2023-07-08T03:50:18.952Z,62.18
2023-07-08T03:52:54.036Z,62.57
2023-07-08T03:55:27.527Z,63.07
2023-07-08T03:58:00.623Z,62.96
2023-07-08T04:00:35.406Z,63.04
2023-07-08T04:03:07.971Z,63.01
2023-07-08T04:05:41.500Z,63.42
2023-07-08T04:08:13.817Z,63.76
2023-07-08T04:10:46.813Z,63.80
2023-07-08T04:13:19.323Z,63.82
2023-07-08T04:15:57.206Z,64.04
2023-07-08T04:18:30.832Z,63.96
2023-07-08T04:23:41.422Z,64.03
2023-07-08T04:26:14.400Z,64.13
2023-07-08T04:28:47.726Z,64.58
2023-07-08T04:31:21.304Z,64.45
2023-07-08T04:33:53.522Z,64.95
2023-07-08T04:36:27.829Z,64.83
2023-07-08T04:39:01.220Z,64.90
2023-07-08T04:41:35.283Z,64.97
2023-07-08T04:44:08.666Z,64.81
2023-07-08T04:46:47.351Z,64.44
2023-07-08T04:49:20.912Z,64.29
2023-07-08T04:51:54.455Z,64.36
2023-07-08T04:54:28.062Z,64.17
2023-07-08T04:57:00.986Z,63.95
2023-07-08T04:59:35.932Z,63.65
2023-07-08T05:02:09.111Z,63.89
2023-07-08T05:04:42.097Z,64.12
2023-07-08T05:07:14.750Z,63.17
2023-07-08T05:09:47.779Z,63.11
2023-07-08T05:12:20.596Z,61.96
2023-07-08T05:14:52.697Z,61.79
2023-07-08T05:17:26.243Z,61.99
2023-07-08T05:19:59.463Z,62.48
2023-07-08T05:22:32.909Z,62.18
2023-07-08T05:25:06.377Z,61.80
2023-07-08T05:27:39.247Z,61.17
2023-07-08T05:30:16.747Z,60.90
2023-07-08T05:32:50.480Z,60.81
2023-07-08T05:35:22.817Z,61.56
2023-07-08T05:37:55.522Z,61.30
2023-07-08T05:40:28.568Z,60.83
2023-07-08T05:43:06.762Z,60.61
2023-07-08T05:45:39.154Z,59.38
2023-07-08T05:48:12.437Z,59.27
2023-07-08T05:50:45.160Z,59.01
2023-07-08T05:53:20.571Z,58.33
2023-07-08T05:55:54.182Z,58.38
2023-07-08T05:58:27.360Z,55.53
2023-07-08T06:01:01.526Z,54.23
2023-07-08T06:03:34.956Z,53.63
2023-07-08T06:06:09.214Z,53.55
2023-07-08T06:08:41.627Z,52.98
2023-07-08T06:11:14.149Z,52.49
2023-07-08T06:13:46.855Z,52.76
2023-07-08T06:16:31.330Z,52.70
2023-07-08T06:19:11.834Z,52.71
2023-07-08T06:21:44.430Z,52.59
2023-07-08T06:24:17.217Z,52.76
2023-07-08T06:29:26.496Z,52.13
2023-07-08T06:31:59.790Z,51.72
2023-07-08T06:34:32.478Z,51.08
2023-07-08T06:37:05.392Z,50.88
2023-07-08T06:39:40.142Z,49.01
2023-07-08T06:42:14.852Z,47.45
2023-07-08T06:44:54.523Z,47.42
2023-07-08T06:47:27.226Z,47.79
2023-07-08T06:49:59.996Z,48.30
2023-07-08T06:52:35.540Z,47.87
2023-07-08T06:55:09.989Z,49.04
2023-07-08T06:57:42.877Z,48.52
2023-07-08T07:00:16.504Z,47.92
2023-07-08T07:02:48.914Z,45.91
2023-07-08T07:05:23.404Z,46.67
2023-07-08T07:07:57.493Z,47.54
2023-07-08T07:10:29.697Z,45.96
2023-07-08T07:13:02.344Z,44.90
2023-07-08T07:15:35.085Z,45.11
2023-07-08T07:18:08.238Z,44.17
2023-07-08T07:20:48.586Z,44.15
2023-07-08T07:23:21.309Z,43.29
2023-07-08T07:25:54.205Z,44.38
2023-07-08T07:28:27.116Z,43.74
2023-07-08T07:31:03.014Z,43.70
2023-07-08T07:33:36.162Z,43.28
2023-07-08T07:36:09.093Z,43.09
2023-07-08T07:38:41.538Z,42.65
2023-07-08T07:41:13.992Z,42.71
2023-07-08T07:43:46.783Z,43.31
2023-07-08T07:46:19.699Z,42.61
2023-07-08T07:48:51.839Z,41.95
2023-07-08T07:51:23.993Z,42.40
2023-07-08T07:53:56.933Z,41.31
2023-07-08T07:56:29.558Z,41.74
2023-07-08T07:59:01.715Z,40.81
2023-07-08T08:01:33.987Z,40.66
2023-07-08T08:04:07.160Z,40.11
2023-07-08T08:06:40.036Z,40.71
2023-07-08T08:09:12.660Z,40.09
2023-07-08T08:11:44.957Z,40.22
2023-07-08T08:14:17.891Z,40.02
2023-07-08T08:16:50.604Z,39.88
2023-07-08T08:19:23.769Z,39.10
2023-07-08T08:21:56.375Z,40.01
2023-07-08T08:24:29.136Z,40.48
2023-07-08T08:27:01.595Z,39.68
2023-07-08T08:29:34.454Z,39.24
2023-07-08T08:32:07.944Z,38.70
2023-07-08T08:34:40.749Z,38.77
2023-07-08T08:37:13.466Z,37.62
2023-07-08T08:39:45.985Z,38.11
2023-07-08T08:42:26.402Z,37.78
2023-07-08T08:45:00.757Z,36.91
2023-07-08T08:47:40.766Z,37.68
2023-07-08T08:50:30.436Z,36.89
2023-07-08T08:53:06.152Z,35.86
2023-07-08T08:55:38.826Z,35.33
2023-07-08T08:58:26.490Z,35.18
2023-07-08T09:01:01.433Z,35.82
2023-07-08T09:03:43.675Z,35.48
2023-07-08T09:06:21.173Z,35.07
2023-07-08T09:08:56.106Z,35.12
2023-07-08T09:11:44.930Z,34.89
2023-07-08T09:14:25.820Z,36.13
2023-07-08T09:17:12.188Z,36.09
2023-07-08T09:19:47.019Z,35.61
2023-07-08T09:22:21.058Z,35.88
2023-07-08T09:24:58.830Z,34.95
2023-07-08T09:27:31.833Z,35.05
2023-07-08T09:30:04.492Z,35.57
2023-07-08T09:32:36.950Z,35.79
2023-07-08T09:35:18.361Z,35.71
2023-07-08T09:37:51.863Z,34.60
2023-07-08T09:40:31.410Z,34.38
2023-07-08T09:43:13.772Z,34.19
2023-07-08T09:45:50.089Z,34.06
2023-07-08T09:48:26.886Z,34.81
2023-07-08T09:51:01.317Z,35.12
2023-07-08T09:53:35.372Z,34.12
2023-07-08T09:56:10.848Z,34.13
2023-07-08T09:58:50.476Z,33.98
2023-07-08T10:01:27.613Z,33.50
2023-07-08T10:04:04.341Z,33.03
2023-07-08T10:06:37.811Z,33.37
2023-07-08T10:09:20.026Z,33.21
2023-07-08T10:11:58.545Z,32.32
2023-07-08T10:14:37.217Z,32.79
2023-07-08T10:17:11.794Z,33.59
2023-07-08T10:19:44.203Z,32.45
2023-07-08T10:22:34.384Z,33.33
2023-07-08T10:25:24.957Z,32.93
2023-07-08T10:28:06.421Z,32.58
2023-07-08T10:30:50.416Z,32.30
2023-07-08T10:33:44.048Z,32.51
2023-07-08T10:36:26.461Z,32.82
2023-07-08T10:39:19.768Z,31.89
2023-07-08T10:42:04.413Z,32.10
2023-07-08T10:44:38.457Z,32.41
2023-07-08T10:47:24.946Z,31.55
2023-07-08T10:50:19.046Z,31.28
2023-07-08T10:53:10.187Z,31.40
2023-07-08T10:55:54.253Z,31.38
2023-07-08T10:58:47.239Z,31.01
2023-07-08T11:01:31.231Z,32.85
2023-07-08T11:04:26.086Z,32.13
2023-07-08T11:07:04.466Z,33.07
2023-07-08T11:09:42.787Z,31.42
2023-07-08T11:12:27.081Z,32.56
2023-07-08T11:15:06.160Z,32.06
2023-07-08T11:17:44.423Z,31.75
2023-07-08T11:20:23.817Z,31.78
2023-07-08T11:23:03.060Z,31.64
2023-07-08T11:25:37.288Z,32.19
2023-07-08T11:28:14.840Z,31.17
2023-07-08T11:30:53.709Z,31.29
2023-07-08T11:33:29.064Z,30.83
2023-07-08T11:36:04.255Z,29.70
2023-07-08T11:38:37.373Z,29.78
2023-07-08T11:41:21.898Z,29.53
2023-07-08T11:43:58.807Z,29.59
2023-07-08T11:46:33.111Z,29.90
2023-07-08T11:49:07.946Z,30.43
2023-07-08T11:51:43.732Z,29.77
2023-07-08T11:54:22.614Z,29.08
2023-07-08T11:57:02.790Z,28.97
2023-07-08T11:59:39.804Z,29.56
2023-07-08T12:02:18.099Z,29.21
2023-07-08T12:05:00.996Z,30.06
2023-07-08T12:07:43.742Z,30.10
2023-07-08T12:10:20.812Z,30.13
2023-07-08T12:12:53.204Z,29.52
2023-07-08T12:15:29.716Z,28.77
2023-07-08T12:18:06.472Z,28.21
2023-07-08T12:20:42.249Z,27.21
2023-07-08T12:23:17.780Z,28.13
2023-07-08T12:25:50.716Z,27.16
2023-07-08T12:28:24.114Z,27.59
2023-07-08T12:31:00.756Z,26.97
2023-07-08T12:33:36.186Z,27.25
2023-07-08T12:36:12.469Z,27.23
2023-07-08T12:38:46.578Z,27.34
2023-07-08T12:41:25.025Z,27.75
2023-07-08T12:43:57.981Z,27.61
2023-07-08T12:46:31.005Z,27.79
2023-07-08T12:49:03.616Z,27.21
2023-07-08T12:51:36.105Z,27.29
2023-07-08T12:54:11.666Z,27.32
2023-07-08T12:56:48.211Z,27.29
2023-07-08T12:59:23.570Z,26.98
2023-07-08T13:01:56.927Z,26.81
2023-07-08T13:04:31.013Z,26.33
2023-07-08T13:07:05.076Z,27.76
2023-07-08T13:09:41.909Z,28.05
2023-07-08T13:12:21.442Z,27.02
2023-07-08T13:14:56.634Z,27.39
2023-07-08T13:17:29.738Z,27.90
2023-07-08T13:20:03.661Z,26.93
2023-07-08T13:22:37.961Z,28.28
2023-07-08T13:25:16.872Z,28.10
2023-07-08T13:28:00.494Z,27.06
2023-07-08T13:30:34.372Z,26.63
2023-07-08T13:33:08.613Z,26.84
2023-07-08T13:35:43.013Z,27.38
2023-07-08T13:38:19.412Z,29.55
2023-07-08T13:40:57.037Z,28.63
2023-07-08T13:43:30.888Z,27.09
2023-07-08T13:46:04.048Z,27.46
2023-07-08T13:48:40.689Z,27.40
2023-07-08T13:51:19.481Z,26.69
2023-07-08T13:53:54.429Z,26.85
2023-07-08T13:56:31.291Z,26.61
2023-07-08T13:59:11.832Z,26.84
2023-07-08T14:01:46.418Z,26.65
2023-07-08T14:04:20.913Z,28.46
2023-07-08T14:06:51.702Z,27.68
2023-07-08T14:09:25.625Z,29.07
2023-07-08T14:11:58.114Z,26.77
2023-07-08T14:14:30.808Z,26.97
2023-07-08T14:17:03.547Z,26.86
2023-07-08T14:19:37.412Z,25.90
2023-07-08T14:22:24.779Z,26.72
2023-07-08T14:24:58.935Z,27.99
2023-07-08T14:27:32.874Z,26.52
2023-07-08T14:30:05.927Z,25.92
2023-07-08T14:32:38.950Z,25.78
2023-07-08T14:35:23.511Z,26.03
2023-07-08T14:37:57.070Z,26.10
2023-07-08T14:40:34.222Z,27.35
2023-07-08T14:43:13.112Z,26.94
2023-07-08T14:45:50.437Z,27.04
2023-07-08T14:48:26.838Z,26.62
2023-07-08T14:51:00.484Z,26.98
2023-07-08T14:53:32.911Z,26.24
2023-07-08T14:56:14.633Z,26.49
2023-07-08T14:58:49.061Z,28.28
2023-07-08T15:01:25.502Z,26.63
2023-07-08T15:03:58.060Z,26.22
2023-07-08T15:06:31.232Z,26.49
2023-07-08T15:09:03.355Z,26.48
2023-07-08T15:11:35.952Z,26.15
2023-07-08T15:14:12.575Z,26.08
2023-07-08T15:16:47.020Z,26.01
2023-07-08T15:19:19.752Z,26.43
2023-07-08T15:21:52.182Z,26.76
2023-07-08T15:24:25.858Z,26.80
2023-07-08T15:26:59.753Z,26.65
2023-07-08T15:29:32.092Z,26.24
2023-07-08T15:32:05.815Z,26.43
2023-07-08T15:34:43.035Z,26.12
2023-07-08T15:37:15.418Z,26.47
2023-07-08T15:50:14.073Z,27.67
2023-07-08T15:52:46.753Z,25.98
2023-07-08T15:55:26.464Z,26.57
2023-07-08T15:58:02.760Z,27.20
2023-07-08T16:00:38.265Z,27.27
2023-07-08T16:03:14.664Z,26.34
2023-07-08T16:05:46.875Z,26.55
2023-07-08T16:08:19.044Z,26.08
2023-07-08T16:10:54.712Z,26.30
2023-07-08T16:13:30.282Z,26.09
2023-07-08T16:16:03.935Z,26.48
2023-07-08T16:18:37.674Z,26.34
2023-07-08T16:21:12.333Z,25.46
2023-07-08T16:23:45.980Z,25.84
2023-07-08T16:26:19.011Z,25.92
2023-07-08T16:28:54.531Z,26.76
2023-07-08T16:31:29.745Z,26.22
2023-07-08T16:34:02.127Z,26.64
2023-07-08T16:36:34.360Z,26.46
2023-07-08T16:39:08.030Z,26.95
2023-07-08T16:41:41.094Z,26.64
2023-07-08T16:44:22.554Z,26.96
2023-07-08T16:46:54.716Z,26.51
2023-07-08T16:49:27.464Z,27.15
2023-07-08T16:51:59.670Z,27.52
2023-07-08T16:54:31.991Z,27.16
2023-07-08T16:57:05.286Z,27.97
2023-07-08T16:59:37.447Z,27.62
2023-07-08T17:02:16.441Z,27.56
2023-07-08T17:04:54.536Z,27.93
2023-07-08T17:07:26.692Z,27.90
2023-07-08T17:09:58.760Z,27.90
2023-07-08T17:12:30.953Z,27.71
2023-07-08T17:15:03.107Z,28.11
2023-07-08T17:17:35.938Z,29.27
2023-07-08T17:20:20.429Z,28.52
2023-07-08T17:22:53.425Z,28.16
2023-07-08T17:25:28.227Z,29.20
2023-07-08T17:28:00.593Z,29.29
2023-07-08T17:30:33.959Z,29.64
2023-07-08T17:33:06.656Z,29.46
2023-07-08T17:35:38.747Z,29.68
2023-07-08T17:38:14.686Z,30.38
2023-07-08T17:40:47.012Z,30.61
2023-07-08T17:43:19.309Z,30.79
2023-07-08T17:45:51.697Z,31.29
2023-07-08T17:48:27.508Z,31.70
2023-07-08T17:50:59.907Z,30.91
2023-07-08T17:53:32.345Z,30.59
2023-07-08T17:56:05.090Z,30.63
2023-07-08T17:58:38.605Z,30.18
2023-07-08T18:01:13.514Z,30.61
2023-07-08T18:03:47.358Z,29.99
2023-07-08T18:06:20.188Z,30.34
2023-07-08T18:08:53.085Z,30.39
2023-07-08T18:11:28.234Z,30.69
2023-07-08T18:14:00.943Z,31.34
2023-07-08T18:16:33.441Z,32.40
2023-07-08T18:19:06.508Z,32.23
2023-07-08T18:21:38.788Z,32.89
2023-07-08T18:24:13.919Z,33.15
2023-07-08T18:26:46.539Z,34.40
2023-07-08T18:29:20.390Z,34.02
2023-07-08T18:31:53.609Z,34.09
2023-07-08T18:34:26.122Z,34.16
2023-07-08T18:36:58.717Z,34.62
2023-07-08T18:39:31.270Z,34.76
2023-07-08T18:42:04.150Z,35.56
2023-07-08T18:44:38.565Z,35.35
2023-07-08T18:47:14.073Z,35.42
2023-07-08T18:49:46.872Z,36.55
2023-07-08T18:52:19.321Z,36.92
2023-07-08T18:54:51.922Z,37.05
2023-07-08T18:57:24.820Z,37.65
2023-07-08T18:59:57.407Z,37.83
2023-07-08T19:02:38.325Z,38.30
2023-07-08T19:05:14.823Z,37.58
2023-07-08T19:07:47.506Z,37.90
2023-07-08T19:10:21.931Z,38.15
2023-07-08T19:12:54.695Z,38.10
2023-07-08T19:15:29.154Z,38.63
2023-07-08T19:18:01.844Z,39.07
2023-07-08T19:20:37.848Z,39.27
2023-07-08T19:23:16.111Z,39.56
2023-07-08T19:25:48.774Z,40.56
2023-07-08T19:28:21.129Z,40.44
2023-07-08T19:30:56.303Z,40.55
2023-07-08T19:33:29.067Z,40.74
2023-07-08T19:36:02.669Z,40.53
2023-07-08T19:38:35.627Z,41.09
2023-07-08T19:41:11.505Z,40.44
2023-07-08T19:43:44.826Z,39.10
2023-07-08T19:46:18.662Z,38.73
2023-07-08T19:48:50.737Z,38.34
2023-07-08T19:51:23.244Z,38.61
2023-07-08T19:53:55.778Z,39.37
2023-07-08T19:56:30.690Z,39.42
2023-07-08T19:59:04.606Z,39.47
2023-07-08T20:01:37.012Z,39.99
2023-07-08T20:04:09.281Z,39.85
2023-07-08T20:06:41.449Z,40.46
2023-07-08T20:09:15.995Z,40.85
2023-07-08T20:11:49.587Z,41.56
2023-07-08T20:14:22.106Z,41.98
2023-07-08T20:16:54.845Z,41.95
2023-07-08T20:19:29.158Z,42.55
2023-07-08T20:22:01.822Z,42.15
2023-07-08T20:24:34.492Z,41.66
2023-07-08T20:27:09.870Z,41.50
2023-07-08T20:29:42.893Z,41.70
2023-07-08T20:32:17.132Z,42.56
2023-07-08T20:34:49.818Z,42.38
2023-07-08T20:37:22.940Z,42.95
2023-07-08T20:39:55.316Z,43.70
2023-07-08T20:42:28.546Z,43.96
2023-07-08T20:45:00.666Z,43.25
2023-07-08T20:47:33.357Z,42.53
2023-07-08T20:50:07.961Z,42.39
2023-07-08T20:52:40.071Z,42.38
2023-07-08T20:55:13.628Z,42.75
2023-07-08T20:57:47.145Z,42.65
2023-07-08T21:00:28.754Z,42.55
2023-07-08T21:03:01.652Z,42.48
2023-07-08T21:05:34.277Z,42.51
2023-07-08T21:08:18.707Z,42.50
2023-07-08T21:10:52.406Z,42.93
2023-07-08T21:13:24.929Z,43.17
2023-07-08T21:15:56.988Z,43.24
2023-07-08T21:18:36.067Z,43.67
2023-07-08T21:21:08.393Z,43.75
2023-07-08T21:23:40.520Z,43.82
2023-07-08T21:26:22.952Z,44.50
2023-07-08T21:28:59.149Z,44.64
2023-07-08T21:31:32.839Z,44.71
2023-07-08T21:34:05.654Z,45.11
2023-07-08T21:36:38.869Z,45.14
2023-07-08T21:39:19.925Z,45.24
2023-07-08T21:41:52.626Z,45.47
2023-07-08T21:44:27.372Z,45.78
2023-07-08T21:46:59.593Z,46.01
2023-07-08T21:49:31.839Z,46.15
2023-07-08T21:52:04.718Z,46.56
2023-07-08T21:54:37.059Z,46.54
2023-07-08T21:57:11.559Z,47.02
2023-07-08T21:59:44.028Z,47.59
2023-07-08T22:15:04.639Z,48.68
2023-07-08T22:17:37.566Z,48.61
2023-07-08T22:20:11.928Z,48.84
2023-07-08T22:22:44.578Z,49.49
2023-07-08T22:25:24.222Z,48.63
2023-07-08T22:29:23.339Z,48.38
2023-07-08T22:31:55.842Z,48.77
2023-07-08T22:34:29.499Z,48.80
2023-07-08T22:37:01.937Z,48.67
2023-07-08T22:39:34.288Z,48.65
2023-07-08T22:42:09.904Z,49.05
2023-07-08T22:44:42.219Z,49.89
2023-07-08T22:47:15.165Z,50.11
2023-07-08T22:49:47.523Z,50.31
2023-07-08T22:52:27.217Z,50.38
2023-07-08T22:55:00.333Z,50.33
2023-07-08T22:57:32.541Z,50.10
2023-07-08T23:00:05.263Z,50.55
2023-07-08T23:02:37.848Z,50.96
2023-07-08T23:05:11.139Z,51.16
2023-07-08T23:08:02.031Z,50.96
2023-07-08T23:10:34.596Z,50.83
2023-07-08T23:13:06.613Z,50.99
2023-07-08T23:15:39.247Z,51.09
2023-07-08T23:18:16.211Z,52.01
2023-07-08T23:20:48.876Z,52.61
2023-07-08T23:23:21.153Z,52.00
2023-07-08T23:25:53.246Z,51.89
2023-07-08T23:28:25.636Z,51.96
2023-07-08T23:30:57.903Z,52.75
2023-07-08T23:33:30.188Z,53.18
2023-07-08T23:36:02.971Z,53.43
2023-07-08T23:38:54.136Z,53.37
2023-07-08T23:41:26.712Z,53.48
2023-07-08T23:43:58.953Z,53.54
2023-07-08T23:46:35.048Z,54.14
2023-07-08T23:49:19.077Z,54.57
2023-07-08T23:51:51.809Z,54.55
2023-07-08T23:54:26.690Z,54.24
2023-07-08T23:57:01.428Z,54.47
2023-07-08T23:59:38.186Z,54.98
